createdAt,value
2019-02-10T00:00:44.007Z,10.97
2019-02-10T00:03:12.420Z,13.88
2019-02-10T00:05:40.839Z,14.30
2019-02-10T00:08:09.267Z,13.43
2019-02-10T00:10:37.719Z,12.73
2019-02-10T00:13:26.501Z,13.62
2019-02-10T00:15:56.240Z,14.23
2019-02-10T00:18:24.706Z,13.83
2019-02-10T00:20:53.134Z,14.28
2019-02-10T00:23:21.532Z,14.07
2019-02-10T00:25:49.936Z,14.15
2019-02-10T00:28:18.347Z,12.95
2019-02-10T00:30:46.759Z,15.08
2019-02-10T00:33:15.207Z,12.87
2019-02-10T00:35:43.678Z,12.98
2019-02-10T00:38:12.049Z,15.70
2019-02-10T00:40:40.487Z,17.37
2019-02-10T00:43:08.883Z,11.63
2019-02-10T00:45:37.288Z,15.10
2019-02-10T00:48:05.693Z,15.03
2019-02-10T00:50:34.109Z,14.83
2019-02-10T00:53:02.521Z,10.93
2019-02-10T00:55:30.935Z,15.08
2019-02-10T00:57:59.355Z,14.40
2019-02-10T01:00:28.840Z,12.53
2019-02-10T01:02:57.265Z,13.00
2019-02-10T01:05:25.674Z,13.00
2019-02-10T01:07:54.159Z,10.85
2019-02-10T01:10:24.868Z,16.57
2019-02-10T01:12:53.467Z,13.15
2019-02-10T01:15:21.865Z,18.20
2019-02-10T01:17:50.328Z,14.83
2019-02-10T01:20:18.715Z,17.23
2019-02-10T01:22:47.122Z,13.78
2019-02-10T01:25:15.583Z,12.90
2019-02-10T01:27:44.195Z,12.07
2019-02-10T01:30:14.928Z,15.23
2019-02-10T01:32:43.434Z,16.13
2019-02-10T01:35:11.888Z,18.07
2019-02-10T01:37:40.339Z,17.00
2019-02-10T01:40:10.381Z,16.70
2019-02-10T01:42:38.869Z,18.82
2019-02-10T01:45:10.146Z,15.13
2019-02-10T01:47:38.877Z,13.10
2019-02-10T01:50:09.639Z,13.17
2019-02-10T01:52:38.186Z,13.10
2019-02-10T01:55:09.664Z,13.65
2019-02-10T01:57:38.459Z,14.10
2019-02-10T02:00:09.931Z,15.93
2019-02-10T02:02:38.335Z,16.77
2019-02-10T02:05:07.342Z,16.50
2019-02-10T02:07:35.744Z,12.90
2019-02-10T02:10:05.441Z,14.65
2019-02-10T02:12:33.857Z,14.93
2019-02-10T02:15:02.243Z,13.22
2019-02-10T02:17:30.649Z,13.15
2019-02-10T02:19:59.044Z,12.58
2019-02-10T02:22:27.523Z,15.60
2019-02-10T02:24:55.939Z,17.87
2019-02-10T02:27:24.375Z,13.68
2019-02-10T02:29:52.793Z,14.90
2019-02-10T02:32:21.207Z,13.30
2019-02-10T02:34:49.644Z,19.00
2019-02-10T02:37:18.031Z,15.68
2019-02-10T02:39:46.433Z,15.85
2019-02-10T02:42:14.852Z,12.15
2019-02-10T02:44:43.281Z,17.23
2019-02-10T02:47:11.689Z,12.45
2019-02-10T02:49:40.087Z,11.95
2019-02-10T02:52:08.503Z,12.53
2019-02-10T02:54:36.920Z,12.53
2019-02-10T02:57:05.334Z,12.30
2019-02-10T02:59:33.743Z,16.20
2019-02-10T03:02:02.160Z,16.63
2019-02-10T03:04:30.545Z,12.00
2019-02-10T03:06:58.936Z,12.82
2019-02-10T03:09:27.354Z,10.55
2019-02-10T03:11:55.777Z,12.05
2019-02-10T03:14:24.236Z,11.53
2019-02-10T03:16:52.632Z,13.90
2019-02-10T03:19:21.059Z,11.12
2019-02-10T03:21:49.448Z,14.03
2019-02-10T03:24:17.865Z,16.00
2019-02-10T03:26:46.271Z,11.10
2019-02-10T03:29:14.656Z,15.40
2019-02-10T03:31:43.089Z,13.13
2019-02-10T03:34:11.472Z,12.85
2019-02-10T03:36:39.908Z,13.22
2019-02-10T03:39:08.303Z,15.72
2019-02-10T03:41:36.706Z,10.20
2019-02-10T03:44:05.187Z,17.10
2019-02-10T03:46:33.632Z,11.95
2019-02-10T03:49:02.042Z,14.20
2019-02-10T03:51:30.440Z,12.53
2019-02-10T03:53:58.837Z,12.45
2019-02-10T03:56:27.269Z,11.12
2019-02-10T03:58:55.657Z,15.37
2019-02-10T04:01:24.068Z,11.78
2019-02-10T04:03:52.479Z,14.60
2019-02-10T04:06:20.899Z,13.68
2019-02-10T04:08:49.314Z,10.85
2019-02-10T04:11:17.766Z,12.75
2019-02-10T04:13:46.164Z,11.27
2019-02-10T04:16:14.568Z,10.63
2019-02-10T04:18:43.255Z,11.70
2019-02-10T04:21:11.647Z,14.15
2019-02-10T04:23:40.065Z,13.05
2019-02-10T04:26:08.455Z,13.43
2019-02-10T04:28:36.869Z,9.83
2019-02-10T04:31:05.358Z,14.40
2019-02-10T04:33:33.763Z,15.30
2019-02-10T04:36:02.167Z,11.12
2019-02-10T04:38:30.999Z,10.88
2019-02-10T04:40:59.393Z,12.78
2019-02-10T04:43:27.796Z,10.70
2019-02-10T04:45:56.193Z,11.50
2019-02-10T04:48:24.599Z,15.72
2019-02-10T04:50:53.008Z,9.93
2019-02-10T04:53:21.431Z,12.98
2019-02-10T04:56:11.115Z,10.35
2019-02-10T04:58:39.536Z,12.20
2019-02-10T05:01:07.923Z,12.03
2019-02-10T05:03:36.331Z,10.95
2019-02-10T05:06:04.730Z,13.48
2019-02-10T05:08:33.167Z,12.43
2019-02-10T05:11:01.558Z,12.75
2019-02-10T05:13:29.965Z,13.17
2019-02-10T05:15:58.359Z,8.75
2019-02-10T05:18:26.771Z,12.20
2019-02-10T05:20:55.169Z,11.90
2019-02-10T05:23:23.596Z,11.03
2019-02-10T05:25:51.990Z,11.28
2019-02-10T05:28:20.403Z,11.97
2019-02-10T05:30:48.796Z,10.70
2019-02-10T05:33:17.219Z,11.03
2019-02-10T05:35:45.614Z,11.60
2019-02-10T05:38:14.008Z,12.07
2019-02-10T05:40:42.444Z,11.20
2019-02-10T05:43:10.853Z,10.25
2019-02-10T05:45:39.276Z,11.08
2019-02-10T05:48:07.674Z,13.13
2019-02-10T05:50:36.071Z,9.03
2019-02-10T05:53:04.512Z,10.00
2019-02-10T05:55:32.901Z,11.25
2019-02-10T05:58:01.323Z,9.83
2019-02-10T06:00:29.984Z,8.53
2019-02-10T06:02:58.402Z,8.65
2019-02-10T06:05:26.783Z,9.90
2019-02-10T06:07:55.203Z,8.78
2019-02-10T06:10:23.627Z,12.68
2019-02-10T06:12:52.024Z,10.83
2019-02-10T06:15:20.434Z,13.03
2019-02-10T06:17:48.829Z,11.75
2019-02-10T06:20:17.251Z,10.18
2019-02-10T06:22:45.632Z,13.58
2019-02-10T06:25:14.056Z,9.40
2019-02-10T06:27:42.479Z,14.73
2019-02-10T06:30:21.298Z,10.53
2019-02-10T06:32:50.341Z,13.05
2019-02-10T06:35:18.749Z,10.28
2019-02-10T06:37:47.155Z,12.40
2019-02-10T06:40:15.563Z,10.30
2019-02-10T06:42:43.956Z,8.33
2019-02-10T06:45:12.472Z,11.70
2019-02-10T06:47:40.851Z,8.75
2019-02-10T06:50:09.624Z,10.50
2019-02-10T06:52:38.023Z,9.80
2019-02-10T06:55:08.587Z,7.83
2019-02-10T06:57:37.004Z,10.88
2019-02-10T07:00:19.322Z,14.20
2019-02-10T07:03:25.007Z,9.83
2019-02-10T07:05:53.484Z,9.30
2019-02-10T07:08:21.892Z,10.68
2019-02-10T07:10:50.288Z,8.85
2019-02-10T07:13:21.755Z,14.33
2019-02-10T07:16:27.848Z,10.60
2019-02-10T07:19:32.927Z,8.55
2019-02-10T07:22:03.940Z,10.82
2019-02-10T07:24:38.623Z,9.03
2019-02-10T07:27:16.246Z,10.98
2019-02-10T07:29:47.712Z,7.35
2019-02-10T07:32:19.551Z,9.50
2019-02-10T07:34:54.056Z,10.25
2019-02-10T07:37:25.559Z,9.48
2019-02-10T07:40:15.072Z,11.22
2019-02-10T07:42:55.135Z,10.78
2019-02-10T07:45:37.945Z,9.73
2019-02-10T07:48:18.254Z,9.38
2019-02-10T07:50:50.078Z,7.17
2019-02-10T07:53:27.435Z,8.10
2019-02-10T07:56:19.923Z,8.98
2019-02-10T07:58:54.564Z,7.47
2019-02-10T08:01:37.717Z,10.60
2019-02-10T08:04:17.937Z,11.45
2019-02-10T08:06:49.420Z,9.65
2019-02-10T08:09:26.656Z,8.45
2019-02-10T08:12:17.577Z,7.37
2019-02-10T08:14:51.815Z,9.75
2019-02-10T08:17:29.159Z,9.23
2019-02-10T08:20:17.434Z,10.98
2019-02-10T08:23:07.225Z,8.43
2019-02-10T08:26:01.363Z,8.80
2019-02-10T08:28:58.697Z,7.97
2019-02-10T08:32:03.565Z,12.13
2019-02-10T08:34:40.455Z,7.42
2019-02-10T08:37:17.915Z,12.68
2019-02-10T08:40:01.335Z,8.55
2019-02-10T08:42:38.408Z,10.63
2019-02-10T08:45:15.727Z,8.43
2019-02-10T08:48:23.336Z,9.55
2019-02-10T08:50:57.567Z,8.73
2019-02-10T08:53:26.074Z,8.50
2019-02-10T08:55:54.455Z,11.18
2019-02-10T08:58:22.869Z,6.58
2019-02-10T09:00:51.261Z,5.67
2019-02-10T09:03:20.034Z,8.30
2019-02-10T09:05:48.433Z,6.12
2019-02-10T09:08:16.823Z,6.50
2019-02-10T09:10:45.243Z,7.85
2019-02-10T09:13:13.643Z,7.97
2019-02-10T09:15:42.067Z,4.90
2019-02-10T09:18:10.460Z,10.32
2019-02-10T09:20:38.861Z,8.88
2019-02-10T09:23:07.284Z,8.83
2019-02-10T09:25:35.723Z,8.90
2019-02-10T09:28:04.130Z,9.38
2019-02-10T09:30:32.543Z,9.73
2019-02-10T09:33:01.271Z,8.38
2019-02-10T09:35:29.698Z,10.30
2019-02-10T09:37:58.119Z,6.95
2019-02-10T09:40:26.529Z,10.23
2019-02-10T09:42:54.932Z,8.95
2019-02-10T09:45:23.328Z,7.95
2019-02-10T09:47:51.723Z,7.85
2019-02-10T09:50:20.491Z,7.55
2019-02-10T09:52:48.891Z,10.85
2019-02-10T09:55:17.358Z,6.03
2019-02-10T09:57:45.791Z,8.43
2019-02-10T10:00:14.865Z,7.67
2019-02-10T10:02:43.295Z,10.10
2019-02-10T10:05:13.355Z,8.60
2019-02-10T10:07:41.816Z,9.67
2019-02-10T10:10:16.150Z,8.15
2019-02-10T10:12:44.560Z,6.45
2019-02-10T10:15:15.380Z,7.40
2019-02-10T10:17:43.801Z,6.53
2019-02-10T10:20:19.135Z,9.33
2019-02-10T10:22:47.543Z,7.47
2019-02-10T10:25:15.963Z,8.07
2019-02-10T10:27:44.355Z,8.95
2019-02-10T10:30:15.867Z,7.60
2019-02-10T10:32:44.292Z,9.48
2019-02-10T10:35:12.694Z,7.03
2019-02-10T10:37:41.087Z,9.25
2019-02-10T10:40:10.849Z,7.70
2019-02-10T10:42:39.249Z,9.60
2019-02-10T10:45:10.691Z,7.90
2019-02-10T10:47:39.093Z,7.08
2019-02-10T10:50:10.627Z,6.30
2019-02-10T10:52:39.179Z,8.70
2019-02-10T10:55:10.024Z,7.78
2019-02-10T10:57:38.439Z,7.42
2019-02-10T11:00:12.783Z,7.70
2019-02-10T11:02:41.247Z,9.15
2019-02-10T11:05:09.791Z,7.12
2019-02-10T11:07:38.792Z,8.95
2019-02-10T11:10:11.982Z,9.68
2019-02-10T11:12:40.391Z,8.00
2019-02-10T11:15:16.529Z,7.53
2019-02-10T11:17:44.912Z,8.50
2019-02-10T11:20:13.534Z,7.00
2019-02-10T11:22:42.007Z,8.13
2019-02-10T11:25:12.116Z,8.60
2019-02-10T11:27:40.533Z,7.72
2019-02-10T11:30:11.592Z,9.40
2019-02-10T11:32:40.077Z,8.95
2019-02-10T11:35:09.152Z,7.12
2019-02-10T11:37:37.571Z,7.50
2019-02-10T11:40:08.820Z,8.85
2019-02-10T11:42:37.252Z,7.70
2019-02-10T11:45:10.771Z,7.90
2019-02-10T11:47:39.180Z,6.20
2019-02-10T11:50:10.219Z,6.37
2019-02-10T11:52:38.655Z,6.30
2019-02-10T11:55:08.021Z,7.40
2019-02-10T11:57:36.425Z,6.00
2019-02-10T12:00:10.621Z,8.15
2019-02-10T12:02:39.054Z,7.17
2019-02-10T12:05:09.814Z,7.37
2019-02-10T12:07:38.732Z,6.30
2019-02-10T12:10:10.134Z,6.45
2019-02-10T12:12:38.888Z,7.07
2019-02-10T12:15:14.404Z,5.72
2019-02-10T12:17:42.839Z,6.15
2019-02-10T12:20:16.212Z,7.30
2019-02-10T12:22:49.855Z,5.60
2019-02-10T12:25:14.814Z,5.83
2019-02-10T12:27:43.268Z,5.60
2019-02-10T12:30:16.500Z,6.07
2019-02-10T12:32:44.892Z,6.28
2019-02-10T12:35:13.565Z,5.28
2019-02-10T12:37:41.960Z,5.20
2019-02-10T12:40:11.827Z,5.62
2019-02-10T12:42:40.251Z,6.37
2019-02-10T12:45:10.503Z,6.20
2019-02-10T12:47:38.972Z,6.90
2019-02-10T12:50:10.507Z,6.50
2019-02-10T12:52:38.889Z,5.70
2019-02-10T12:55:08.388Z,6.40
2019-02-10T12:57:36.779Z,6.00
2019-02-10T13:00:19.424Z,6.47
2019-02-10T13:02:47.834Z,6.00
2019-02-10T13:05:16.349Z,6.15
2019-02-10T13:07:44.806Z,5.42
2019-02-10T13:10:17.419Z,6.53
2019-02-10T13:12:44.771Z,5.58
2019-02-10T13:15:13.728Z,6.05
2019-02-10T13:17:42.131Z,7.00
2019-02-10T13:20:12.067Z,7.85
2019-02-10T13:22:40.453Z,5.97
2019-02-10T13:25:10.620Z,6.20
2019-02-10T13:27:39.094Z,6.70
2019-02-10T13:30:13.347Z,6.47
2019-02-10T13:32:41.789Z,7.80
2019-02-10T13:35:10.660Z,6.90
2019-02-10T13:37:39.429Z,15.20
2019-02-10T13:40:19.021Z,8.83
2019-02-10T13:42:47.435Z,7.28
2019-02-10T13:45:15.986Z,7.70
2019-02-10T13:47:44.375Z,8.00
2019-02-10T13:50:19.042Z,7.70
2019-02-10T13:52:47.459Z,8.45
2019-02-10T13:55:16.622Z,12.20
2019-02-10T13:57:45.109Z,11.40
2019-02-10T14:00:21.136Z,9.03
2019-02-10T14:02:49.836Z,6.97
2019-02-10T14:05:18.255Z,7.90
2019-02-10T14:07:46.663Z,6.72
2019-02-10T14:10:24.727Z,5.53
2019-02-10T14:12:46.471Z,5.53
2019-02-10T14:15:17.062Z,5.70
2019-02-10T14:17:45.758Z,6.70
2019-02-10T14:20:18.880Z,5.20
2019-02-10T14:22:47.384Z,5.55
2019-02-10T14:25:15.869Z,6.47
2019-02-10T14:27:44.344Z,7.62
2019-02-10T14:30:16.846Z,6.60
2019-02-10T14:32:45.631Z,9.00
2019-02-10T14:35:14.039Z,9.48
2019-02-10T14:37:42.475Z,14.38
2019-02-10T14:40:11.011Z,7.92
2019-02-10T14:42:39.768Z,8.10
2019-02-10T14:45:13.275Z,6.03
2019-02-10T14:47:41.672Z,4.00
2019-02-10T14:50:12.822Z,4.90
2019-02-10T14:52:41.241Z,5.20
2019-02-10T14:55:09.673Z,5.70
2019-02-10T14:57:38.149Z,6.50
2019-02-10T15:00:10.527Z,6.67
2019-02-10T15:02:38.971Z,5.95
2019-02-10T15:05:08.035Z,6.20
2019-02-10T15:07:36.459Z,11.28
2019-02-10T15:10:08.029Z,7.12
2019-02-10T15:12:39.459Z,6.00
2019-02-10T15:15:09.979Z,7.27
2019-02-10T15:17:38.427Z,8.08
2019-02-10T15:20:09.067Z,6.80
2019-02-10T15:22:37.506Z,7.15
2019-02-10T15:25:08.944Z,7.95
2019-02-10T15:27:37.388Z,6.17
2019-02-10T15:30:08.864Z,6.70
2019-02-10T15:32:37.268Z,8.08
2019-02-10T15:35:06.140Z,6.08
2019-02-10T15:37:34.537Z,5.25
2019-02-10T15:40:03.022Z,5.00
2019-02-10T15:42:31.699Z,5.00
2019-02-10T15:45:00.287Z,4.80
2019-02-10T15:47:28.999Z,5.53
2019-02-10T15:49:57.771Z,5.60
2019-02-10T15:52:26.175Z,9.00
2019-02-10T15:54:54.610Z,6.13
2019-02-10T15:57:23.632Z,6.33
2019-02-10T15:59:52.048Z,5.30
2019-02-10T16:02:20.788Z,6.20
2019-02-10T16:04:49.193Z,5.70
2019-02-10T16:07:17.617Z,5.85
2019-02-10T16:09:46.036Z,6.42
2019-02-10T16:12:14.430Z,6.78
2019-02-10T16:14:42.843Z,6.53
2019-02-10T16:17:11.243Z,7.72
2019-02-10T16:19:39.652Z,7.75
2019-02-10T16:22:09.751Z,7.78
2019-02-10T16:24:38.170Z,7.55
2019-02-10T16:27:06.552Z,7.35
2019-02-10T16:29:34.987Z,7.65
2019-02-10T16:32:03.393Z,8.20
2019-02-10T16:34:31.791Z,8.63
2019-02-10T16:37:00.240Z,7.15
2019-02-10T16:39:28.699Z,8.10
2019-02-10T16:41:57.095Z,8.10
2019-02-10T16:44:25.533Z,8.10
2019-02-10T16:46:54.003Z,8.23
2019-02-10T16:49:22.525Z,8.50
2019-02-10T16:51:51.237Z,8.53
2019-02-10T16:54:19.655Z,7.75
2019-02-10T16:56:48.075Z,7.42
2019-02-10T16:59:16.511Z,7.33
2019-02-10T17:01:44.951Z,7.12
2019-02-10T17:04:13.397Z,6.75
2019-02-10T17:06:41.851Z,7.35
2019-02-10T17:09:10.409Z,6.97
2019-02-10T17:11:38.953Z,7.03
2019-02-10T17:14:07.348Z,7.17
2019-02-10T17:16:35.791Z,9.90
2019-02-10T17:19:04.218Z,7.90
2019-02-10T17:21:32.650Z,9.13
2019-02-10T17:24:01.058Z,9.13
2019-02-10T17:26:29.526Z,8.28
2019-02-10T17:28:57.932Z,8.90
2019-02-10T17:31:26.352Z,8.53
2019-02-10T17:33:54.748Z,7.35
2019-02-10T17:36:23.193Z,8.15
2019-02-10T17:38:51.580Z,7.87
2019-02-10T17:41:22.857Z,7.37
2019-02-10T17:43:51.153Z,6.40
2019-02-10T17:46:19.573Z,6.60
2019-02-10T17:48:47.972Z,6.30
2019-02-10T17:51:16.415Z,5.97
2019-02-10T17:53:45.166Z,6.55
2019-02-10T17:56:13.604Z,7.67
2019-02-10T17:58:42.039Z,6.47
2019-02-10T18:01:10.444Z,6.90
2019-02-10T18:03:38.843Z,6.30
2019-02-10T18:06:07.551Z,5.70
2019-02-10T18:08:35.988Z,5.12
2019-02-10T18:11:04.718Z,5.05
2019-02-10T18:13:33.136Z,7.10
2019-02-10T18:16:12.164Z,5.33
2019-02-10T18:18:45.497Z,4.60
2019-02-10T18:21:32.207Z,5.00
2019-02-10T18:24:02.266Z,4.80
2019-02-10T18:26:38.225Z,4.50
2019-02-10T18:29:14.241Z,4.22
2019-02-10T18:31:44.296Z,3.90
2019-02-10T18:34:14.331Z,4.83
2019-02-10T18:36:47.055Z,4.30
2019-02-10T18:39:22.808Z,3.60
2019-02-10T18:42:11.363Z,4.40
2019-02-10T18:44:44.151Z,4.33
2019-02-10T18:47:14.239Z,5.00
2019-02-10T18:49:44.287Z,4.70
2019-02-10T18:52:23.153Z,7.17
2019-02-10T18:54:58.965Z,6.50
2019-02-10T18:57:29.011Z,7.30
2019-02-10T19:00:01.889Z,6.72
2019-02-10T19:02:34.564Z,7.20
2019-02-10T19:05:07.318Z,6.28
2019-02-10T19:07:37.391Z,6.40
2019-02-10T19:10:12.043Z,5.50
2019-02-10T19:12:44.945Z,4.90
2019-02-10T19:15:17.962Z,6.00
2019-02-10T19:17:51.246Z,5.90
2019-02-10T19:20:21.967Z,5.72
2019-02-10T19:22:54.793Z,6.00
2019-02-10T19:25:30.923Z,7.35
2019-02-10T19:28:00.996Z,8.10
2019-02-10T19:30:39.787Z,8.23
2019-02-10T19:33:09.871Z,7.80
2019-02-10T19:35:42.699Z,7.60
2019-02-10T19:38:24.788Z,8.28
2019-02-10T19:41:03.678Z,8.50
2019-02-10T19:43:36.024Z,8.58
2019-02-10T19:46:12.175Z,8.55
2019-02-10T19:48:42.301Z,10.25
2019-02-10T19:51:28.838Z,9.38
2019-02-10T19:54:07.882Z,9.60
2019-02-10T19:56:37.921Z,10.43
2019-02-10T19:59:24.308Z,10.35
2019-02-10T20:02:06.155Z,10.98
2019-02-10T20:04:44.999Z,9.30
2019-02-10T20:07:20.807Z,5.62
2019-02-10T20:09:56.619Z,4.12
2019-02-10T20:12:26.715Z,2.90
2019-02-10T20:15:02.726Z,2.60
2019-02-10T20:17:42.057Z,3.00
2019-02-10T20:20:28.455Z,2.00
2019-02-10T20:23:16.766Z,2.70
2019-02-10T20:26:03.052Z,2.70
2019-02-10T20:28:36.041Z,1.97
2019-02-10T20:31:09.168Z,2.08
2019-02-10T20:33:39.205Z,1.80
2019-02-10T20:36:09.251Z,2.17
2019-02-10T20:38:39.499Z,2.10
2019-02-10T20:41:12.578Z,2.00
2019-02-10T20:43:42.687Z,2.40
2019-02-10T20:46:15.555Z,2.00
2019-02-10T20:48:45.736Z,2.02
2019-02-10T20:51:16.075Z,2.30
2019-02-10T20:53:46.158Z,2.30
2019-02-10T20:56:16.503Z,2.60
2019-02-10T20:58:52.666Z,2.60
2019-02-10T21:01:31.625Z,2.70
2019-02-10T21:04:19.746Z,2.90
2019-02-10T21:06:49.775Z,3.00
2019-02-10T21:09:19.915Z,2.40
2019-02-10T21:12:05.020Z,2.30
2019-02-10T21:14:50.137Z,2.17
2019-02-10T21:17:23.054Z,2.50
2019-02-10T21:20:04.835Z,3.00
2019-02-10T21:22:35.295Z,3.27
2019-02-10T21:25:05.741Z,3.70
2019-02-10T21:27:51.550Z,4.30
2019-02-10T21:30:34.190Z,4.25
2019-02-10T21:33:13.215Z,5.10
2019-02-10T21:35:58.662Z,5.15
2019-02-10T21:38:28.708Z,5.37
2019-02-10T21:41:30.284Z,5.72
2019-02-10T21:44:03.168Z,6.15
2019-02-10T21:46:36.188Z,6.12
2019-02-10T21:49:05.375Z,6.70
2019-02-10T21:51:33.778Z,6.87
2019-02-10T21:54:02.448Z,6.40
2019-02-10T21:56:30.984Z,5.95
2019-02-10T21:58:59.452Z,5.53
2019-02-10T22:01:27.892Z,5.20
2019-02-10T22:03:56.311Z,5.30
2019-02-10T22:06:24.707Z,5.30
2019-02-10T22:08:53.118Z,6.45
2019-02-10T22:11:21.520Z,5.47
2019-02-10T22:13:49.929Z,5.92
2019-02-10T22:16:18.671Z,6.00
2019-02-10T22:18:47.079Z,6.97
2019-02-10T22:21:15.477Z,6.70
2019-02-10T22:23:43.879Z,7.40
2019-02-10T22:26:12.280Z,7.70
2019-02-10T22:28:41.747Z,8.23
2019-02-10T22:31:18.479Z,9.53
2019-02-10T22:33:40.304Z,10.40
2019-02-10T22:36:08.704Z,10.28
2019-02-10T22:38:37.120Z,10.38
2019-02-10T22:41:05.531Z,12.80
2019-02-10T22:43:33.940Z,14.73
2019-02-10T22:46:02.344Z,16.05
2019-02-10T22:48:31.076Z,16.35
2019-02-10T22:50:59.561Z,15.32
2019-02-10T22:53:28.035Z,17.20
2019-02-10T22:55:56.524Z,17.07
2019-02-10T22:58:24.934Z,16.70
2019-02-10T23:00:59.611Z,19.92
2019-02-10T23:03:28.057Z,22.50
2019-02-10T23:05:56.472Z,20.32
2019-02-10T23:08:24.890Z,21.75
2019-02-10T23:10:53.312Z,17.75
2019-02-10T23:13:21.738Z,19.63
2019-02-10T23:15:50.171Z,20.57
2019-02-10T23:18:18.575Z,23.50
2019-02-10T23:20:46.996Z,19.45
2019-02-10T23:23:15.421Z,17.60
2019-02-10T23:25:43.848Z,22.17
2019-02-10T23:28:12.295Z,18.10
2019-02-10T23:30:41.156Z,20.05
2019-02-10T23:33:09.617Z,20.43
2019-02-10T23:35:38.035Z,17.05
2019-02-10T23:38:06.491Z,15.13
2019-02-10T23:40:34.908Z,17.85
2019-02-10T23:43:03.408Z,14.53
2019-02-10T23:45:31.819Z,17.15
2019-02-10T23:48:00.216Z,14.93
2019-02-10T23:50:28.640Z,15.20
2019-02-10T23:52:57.090Z,18.40
2019-02-10T23:55:28.448Z,14.83
2019-02-10T23:57:56.876Z,12.15
